createdAt,value
2019-05-03T00:00:11.201Z,6.47
2019-05-03T00:03:42.524Z,6.34
2019-05-03T00:07:13.760Z,5.58
2019-05-03T00:10:43.958Z,6.35
2019-05-03T00:14:14.427Z,6.35
2019-05-03T00:17:44.558Z,6.38
2019-05-03T00:21:14.659Z,7.2
2019-05-03T00:24:44.719Z,6.24
2019-05-03T00:28:14.871Z,7.23
2019-05-03T00:31:44.848Z,6.2
2019-05-03T00:35:22.547Z,7.42
2019-05-03T00:38:55.195Z,6.54
2019-05-03T00:42:25.246Z,5.9
2019-05-03T00:45:55.475Z,7.25
2019-05-03T00:49:25.540Z,10.64
2019-05-03T00:52:55.609Z,7.11
2019-05-03T00:56:25.682Z,8.47
2019-05-03T00:59:55.775Z,8.2
2019-05-03T01:00:16.692Z,7.56
2019-05-03T01:03:46.820Z,6.08
2019-05-03T01:07:16.992Z,6.6
2019-05-03T01:10:47.107Z,7.35
2019-05-03T01:14:17.150Z,6.11
2019-05-03T01:17:47.480Z,7.21
2019-05-03T01:21:17.533Z,5.38
2019-05-03T01:24:47.660Z,6.76
2019-05-03T01:28:17.788Z,7.26
2019-05-03T01:31:47.873Z,6.74
2019-05-03T01:35:17.847Z,10.41
2019-05-03T01:38:47.947Z,9
2019-05-03T01:42:17.957Z,9.59
2019-05-03T01:45:48.021Z,7.55
2019-05-03T01:49:24.507Z,6.81
2019-05-03T01:52:55.408Z,6.03
2019-05-03T01:56:25.420Z,7.46
2019-05-03T01:59:55.488Z,6.65
2019-05-03T02:03:32.579Z,6.88
2019-05-03T02:07:02.825Z,6.1
2019-05-03T02:10:33.889Z,5.8
2019-05-03T02:14:04.056Z,6.66
2019-05-03T02:17:34.072Z,8.17
2019-05-03T02:21:04.209Z,8.54
2019-05-03T02:24:34.279Z,6.75
2019-05-03T02:28:04.396Z,10.79
2019-05-03T02:31:34.401Z,6.9
2019-05-03T02:35:05.147Z,7.45
2019-05-03T02:38:35.208Z,7.34
2019-05-03T02:42:10.898Z,9.41
2019-05-03T02:45:52.394Z,9.79
2019-05-03T02:49:26.769Z,8.18
2019-05-03T02:52:56.872Z,6.43
2019-05-03T02:56:27.068Z,7.21
2019-05-03T02:59:57.167Z,8.42
2019-05-03T03:00:16.493Z,8.59
2019-05-03T03:03:47.151Z,8.69
2019-05-03T03:07:17.616Z,7.12
2019-05-03T03:10:49.945Z,9.35
2019-05-03T03:14:21.162Z,7.67
2019-05-03T03:17:52.433Z,8.89
2019-05-03T03:21:26.699Z,9.06
2019-05-03T03:24:57.542Z,8.26
2019-05-03T03:28:31.839Z,8.02
2019-05-03T03:32:17.560Z,7.09
2019-05-03T03:35:49.261Z,8.01
2019-05-03T03:39:20.034Z,8.14
2019-05-03T03:42:50.609Z,7.85
2019-05-03T03:46:25.058Z,8.09
2019-05-03T03:49:57.159Z,8.85
2019-05-03T03:53:31.049Z,7.85
2019-05-03T03:57:03.593Z,9.36
2019-05-03T04:00:37.680Z,16.39
2019-05-03T04:04:07.717Z,9
2019-05-03T04:07:37.984Z,8.59
2019-05-03T04:11:09.083Z,9.76
2019-05-03T04:15:05.816Z,9.61
2019-05-03T04:18:41.385Z,10.28
2019-05-03T04:22:11.673Z,8.99
2019-05-03T04:25:44.969Z,9.25
2019-05-03T04:29:16.059Z,12.12
2019-05-03T04:32:46.450Z,7.3
2019-05-03T04:36:16.494Z,5.85
2019-05-03T04:39:46.526Z,7.66
2019-05-03T04:43:16.771Z,9.94
2019-05-03T04:46:46.935Z,13.39
2019-05-03T04:50:17.013Z,8.45
2019-05-03T04:53:55.865Z,10.64
2019-05-03T04:57:36.730Z,10.76
2019-05-03T05:00:16.154Z,11.62
2019-05-03T05:03:46.335Z,12.7
2019-05-03T05:07:16.359Z,10.6
2019-05-03T05:10:46.409Z,10.73
2019-05-03T05:14:17.433Z,11.41
2019-05-03T05:18:05.759Z,8.86
2019-05-03T05:21:39.773Z,8.61
2019-05-03T05:25:14.881Z,9.12
2019-05-03T05:28:49.577Z,8.74
2019-05-03T05:32:19.750Z,9.43
2019-05-03T05:35:50.251Z,9.59
2019-05-03T05:39:20.341Z,9.39
2019-05-03T05:42:50.460Z,8.89
2019-05-03T05:46:24.927Z,8.61
2019-05-03T05:49:59.602Z,8.46
2019-05-03T05:53:29.742Z,9.65
2019-05-03T05:57:27.573Z,15.05
2019-05-03T06:01:02.723Z,9.7
2019-05-03T06:04:34.808Z,10.14
2019-05-03T06:08:16.640Z,10.39
2019-05-03T06:11:51.854Z,11.33
2019-05-03T06:16:01.733Z,9.51
2019-05-03T06:19:36.050Z,11.34
2019-05-03T06:23:12.092Z,8.86
2019-05-03T06:26:47.696Z,7.65
2019-05-03T06:30:30.624Z,10.66
2019-05-03T06:34:00.728Z,10.16
2019-05-03T06:37:36.462Z,8.05
2019-05-03T06:41:06.503Z,8.89
2019-05-03T06:44:36.656Z,11.62
2019-05-03T06:48:06.753Z,9.71
2019-05-03T06:51:40.014Z,10.42
2019-05-03T06:55:14.698Z,10.69
2019-05-03T06:58:44.960Z,12.71
2019-05-03T07:02:44.749Z,10.81
2019-05-03T07:06:40.362Z,10.4
2019-05-03T07:10:16.264Z,10.16
2019-05-03T07:13:46.374Z,14.25
2019-05-03T07:17:16.522Z,11.43
2019-05-03T07:20:54.945Z,10.02
2019-05-03T07:24:27.142Z,18.21
2019-05-03T07:27:57.172Z,11.3
2019-05-03T07:31:39.079Z,10.49
2019-05-03T07:35:09.133Z,12.99
2019-05-03T07:38:39.183Z,12.15
2019-05-03T07:42:09.157Z,11.46
2019-05-03T07:45:39.365Z,11.6
2019-05-03T07:49:09.325Z,11.98
2019-05-03T07:52:39.392Z,12.25
2019-05-03T07:56:15.419Z,11.09
2019-05-03T07:59:45.803Z,12.69
2019-05-03T08:03:15.873Z,13.45
2019-05-03T08:06:46.027Z,12.2
2019-05-03T08:10:16.197Z,10.49
2019-05-03T08:13:46.305Z,12.47
2019-05-03T08:17:16.263Z,14.21
2019-05-03T08:20:46.360Z,11.01
2019-05-03T08:24:16.286Z,11.15
2019-05-03T08:27:46.433Z,10.41
2019-05-03T08:31:32.617Z,11.82
2019-05-03T08:36:08.276Z,10.15
2019-05-03T08:39:38.338Z,14.94
2019-05-03T08:43:08.438Z,10.66
2019-05-03T08:46:38.598Z,9.15
2019-05-03T08:50:08.846Z,10.44
2019-05-03T08:53:38.899Z,10.8
2019-05-03T08:57:09.036Z,10.46
2019-05-03T09:00:17.157Z,12.26
2019-05-03T09:03:47.251Z,13.18
2019-05-03T09:07:17.279Z,9.91
2019-05-03T09:10:55.460Z,8.8
2019-05-03T09:14:38.488Z,9.71
2019-05-03T09:18:15.068Z,11.04
2019-05-03T09:21:47.362Z,9.5
2019-05-03T09:25:17.418Z,11.25
2019-05-03T09:28:47.471Z,10.8
2019-05-03T09:32:17.613Z,10.5
2019-05-03T09:35:47.816Z,9.16
2019-05-03T09:39:18.842Z,9.64
2019-05-03T09:42:48.814Z,9.18
2019-05-03T09:46:18.921Z,8.98
2019-05-03T09:49:48.846Z,10.57
2019-05-03T09:53:22.792Z,7.46
2019-05-03T09:57:00.493Z,10.41
2019-05-03T10:00:30.678Z,8.44
2019-05-03T10:04:00.766Z,9.39
2019-05-03T10:07:30.765Z,15.75
2019-05-03T10:11:16.598Z,9.35
2019-05-03T10:14:46.724Z,9.19
2019-05-03T10:18:17.257Z,9.31
2019-05-03T10:21:48.554Z,15.72
2019-05-03T10:25:18.825Z,7.39
2019-05-03T10:28:48.978Z,7.38
2019-05-03T10:32:29.378Z,8.56
2019-05-03T10:35:59.399Z,8.4
2019-05-03T10:39:29.675Z,8.61
2019-05-03T10:42:59.798Z,8.04
2019-05-03T10:46:29.867Z,8.99
2019-05-03T10:49:59.927Z,7.8
2019-05-03T10:53:34.921Z,7.21
2019-05-03T10:57:12.037Z,8.47
2019-05-03T11:00:44.289Z,7.88
2019-05-03T11:04:16.104Z,6.68
2019-05-03T11:07:46.171Z,6.66
2019-05-03T11:11:16.221Z,6.67
2019-05-03T11:14:46.366Z,6.49
2019-05-03T11:18:16.472Z,8.36
2019-05-03T11:21:46.536Z,7.09
2019-05-03T11:25:16.605Z,7.14
2019-05-03T11:28:46.769Z,6.91
2019-05-03T11:33:28.124Z,8.14
2019-05-03T11:37:26.353Z,8.58
2019-05-03T11:40:57.359Z,9.01
2019-05-03T11:44:44.637Z,7.14
2019-05-03T11:48:14.900Z,5.35
2019-05-03T11:51:44.969Z,5.12
2019-05-03T11:55:15.897Z,6.95
2019-05-03T11:58:46.241Z,8.24
2019-05-03T12:02:41.853Z,10.84
2019-05-03T12:06:11.923Z,7.59
2019-05-03T12:09:42.012Z,5.88
2019-05-03T12:13:26.765Z,6.49
2019-05-03T12:17:18.228Z,6.12
2019-05-03T12:20:51.045Z,5.8
2019-05-03T12:24:22.384Z,6.31
2019-05-03T12:27:52.814Z,5.34
2019-05-03T12:31:33.412Z,5.05
2019-05-03T12:35:06.645Z,5.65
2019-05-03T12:38:36.742Z,5.98
2019-05-03T12:42:08.239Z,7
2019-05-03T12:45:38.309Z,4.9
2019-05-03T12:49:08.359Z,6.31
2019-05-03T12:52:49.607Z,7.56
2019-05-03T12:56:23.261Z,6.7
2019-05-03T13:00:31.454Z,7.4
2019-05-03T13:04:05.837Z,6.76
2019-05-03T13:07:41.505Z,6.43
2019-05-03T13:11:11.622Z,6.91
2019-05-03T13:14:41.809Z,6.74
2019-05-03T13:18:11.900Z,5.38
2019-05-03T13:21:42.032Z,8.54
2019-05-03T13:25:12.601Z,6.04
2019-05-03T13:28:42.814Z,6.93
2019-05-03T13:32:12.917Z,6.88
2019-05-03T13:35:44.595Z,5.94
2019-05-03T13:39:14.915Z,5.42
2019-05-03T13:42:56.335Z,5.59
2019-05-03T13:46:31.720Z,6.81
2019-05-03T13:50:02.885Z,6.99
2019-05-03T13:53:34.824Z,7.36
2019-05-03T13:57:05.177Z,6.76
2019-05-03T14:00:35.316Z,7.72
2019-05-03T14:04:05.531Z,6.53
2019-05-03T14:07:35.586Z,12.64
2019-05-03T14:11:05.691Z,6.24
2019-05-03T14:15:08.210Z,10.3
2019-05-03T14:18:41.188Z,5.53
2019-05-03T14:22:12.522Z,5.78
2019-05-03T14:25:44.541Z,6.99
2019-05-03T14:29:15.012Z,6.56
2019-05-03T14:32:45.417Z,7.14
2019-05-03T14:36:16.116Z,14.85
2019-05-03T14:39:46.927Z,9.68
2019-05-03T14:43:17.928Z,7.97
2019-05-03T14:46:48.080Z,7.47
2019-05-03T14:50:18.172Z,7.9
2019-05-03T14:53:48.297Z,7.25
2019-05-03T14:57:26.466Z,6.86
2019-05-03T15:00:25.106Z,7.74
2019-05-03T15:03:55.206Z,7.04
2019-05-03T15:07:25.581Z,6.9
2019-05-03T15:10:55.783Z,5.82
2019-05-03T15:14:25.845Z,7.2
2019-05-03T15:17:55.895Z,6.53
2019-05-03T15:21:25.961Z,5.34
2019-05-03T15:24:56.017Z,4.76
2019-05-03T15:28:26.211Z,7.74
2019-05-03T15:31:56.201Z,5.1
2019-05-03T15:35:26.318Z,4.9
2019-05-03T15:38:56.400Z,7.01
2019-05-03T15:42:27.330Z,4.39
2019-05-03T15:46:06.647Z,5.72
2019-05-03T15:49:36.729Z,4.6
2019-05-03T15:53:06.799Z,4.6
2019-05-03T15:56:36.906Z,6.33
2019-05-03T16:00:09.189Z,4.41
2019-05-03T16:03:39.485Z,5.84
2019-05-03T16:07:09.565Z,6.8
2019-05-03T16:10:39.757Z,6.35
2019-05-03T16:14:09.907Z,5.03
2019-05-03T16:17:40.013Z,4.53
2019-05-03T16:21:10.016Z,4.3
2019-05-03T16:24:40.112Z,5.26
2019-05-03T16:28:15.561Z,6.62
2019-05-03T16:31:45.678Z,6.86
2019-05-03T16:35:15.831Z,5.21
2019-05-03T16:38:45.960Z,9.75
2019-05-03T16:42:15.984Z,5.43
2019-05-03T16:45:46.090Z,5.75
2019-05-03T16:49:16.229Z,5.3
2019-05-03T16:52:46.275Z,7.46
2019-05-03T16:56:17.117Z,15.84
2019-05-03T16:59:47.416Z,5.65
2019-05-03T17:00:17.810Z,5.76
2019-05-03T17:03:54.911Z,4.7
2019-05-03T17:07:31.280Z,4.86
2019-05-03T17:11:05.652Z,8.86
2019-05-03T17:14:36.038Z,4.35
2019-05-03T17:18:06.106Z,4.62
2019-05-03T17:21:36.184Z,5.09
2019-05-03T17:25:06.531Z,7.76
2019-05-03T17:28:36.813Z,5.44
2019-05-03T17:32:06.883Z,8.93
2019-05-03T17:35:36.985Z,5.46
2019-05-03T17:39:12.111Z,5.8
2019-05-03T17:43:18.920Z,7.69
2019-05-03T17:46:49.016Z,4.88
2019-05-03T17:50:20.022Z,4.83
2019-05-03T17:54:05.180Z,6.18
2019-05-03T17:57:44.495Z,5.79
2019-05-03T18:03:44.911Z,8.31
2019-05-03T18:07:25.114Z,6.03
2019-05-03T18:11:04.438Z,8.3
2019-05-03T18:14:34.697Z,4.99
2019-05-03T18:18:05.294Z,5.24
2019-05-03T18:21:35.507Z,6
2019-05-03T18:25:05.781Z,6.35
2019-05-03T18:28:35.879Z,6.71
2019-05-03T18:32:05.963Z,4.49
2019-05-03T18:35:36.019Z,5.1
2019-05-03T18:39:09.488Z,8.2
2019-05-03T18:42:45.753Z,5.44
2019-05-03T18:46:24.566Z,5.47
2019-05-03T18:49:55.028Z,6.24
2019-05-03T18:53:25.402Z,4.48
2019-05-03T18:56:55.832Z,5.47
2019-05-03T19:00:17.613Z,6.19
2019-05-03T19:03:51.139Z,5
2019-05-03T19:07:45.292Z,5.9
2019-05-03T19:11:24.535Z,5.95
2019-05-03T19:14:54.816Z,4.56
2019-05-03T19:18:28.003Z,5.24
2019-05-03T19:21:58.085Z,6.12
2019-05-03T19:25:28.064Z,5.8
2019-05-03T19:28:58.171Z,10.5
2019-05-03T19:32:28.532Z,7.85
2019-05-03T19:36:00.280Z,6.72
2019-05-03T19:39:30.748Z,6
2019-05-03T19:43:02.821Z,5.64
2019-05-03T19:46:35.151Z,7.01
2019-05-03T19:50:05.618Z,9.25
2019-05-03T19:53:47.569Z,6
2019-05-03T19:57:24.407Z,9.5
2019-05-03T20:01:14.394Z,7.41
2019-05-03T20:05:27.306Z,5.56
2019-05-03T20:09:00.912Z,6.61
2019-05-03T20:12:31.412Z,6.11
2019-05-03T20:16:01.439Z,7
2019-05-03T20:19:31.590Z,5.91
2019-05-03T20:23:01.679Z,6.12
2019-05-03T20:26:31.805Z,6.65
2019-05-03T20:30:02.447Z,8.4
2019-05-03T20:33:32.698Z,11.14
2019-05-03T20:37:02.753Z,3.92
2019-05-03T20:40:32.767Z,4.41
2019-05-03T20:44:16.976Z,4.72
2019-05-03T20:47:51.211Z,4.62
2019-05-03T20:51:21.224Z,4.86
2019-05-03T20:54:52.203Z,4.8
2019-05-03T20:58:22.219Z,5.14
2019-05-03T21:00:17.003Z,6.28
2019-05-03T21:03:46.919Z,5.45
2019-05-03T21:07:16.995Z,5.99
2019-05-03T21:10:47.085Z,5.95
2019-05-03T21:14:17.168Z,6.78
2019-05-03T21:18:04.901Z,5.84
2019-05-03T21:21:39.789Z,6.91
2019-05-03T21:25:21.717Z,8.19
2019-05-03T21:28:51.834Z,7.06
2019-05-03T21:32:21.901Z,5.81
2019-05-03T21:35:52.543Z,7.31
2019-05-03T21:39:24.516Z,5
2019-05-03T21:42:54.768Z,5.2
2019-05-03T21:46:34.609Z,4.56
2019-05-03T21:50:05.582Z,8.19
2019-05-03T21:53:38.032Z,8.26
2019-05-03T21:57:08.199Z,6.07
2019-05-03T22:00:59.774Z,4.4
2019-05-03T22:04:29.833Z,3.49
2019-05-03T22:07:59.865Z,4.72
2019-05-03T22:11:30.002Z,4.6
2019-05-03T22:15:10.761Z,7.41
2019-05-03T22:18:41.544Z,3.2
2019-05-03T22:23:39.879Z,3.47
2019-05-03T22:27:15.355Z,3.8
2019-05-03T22:30:45.448Z,4.31
2019-05-03T22:34:15.556Z,4.51
2019-05-03T22:37:45.552Z,4.43
2019-05-03T22:41:15.753Z,3.66
2019-05-03T22:44:45.829Z,6.31
2019-05-03T22:48:15.874Z,3.56
2019-05-03T22:51:45.971Z,4.19
2019-05-03T22:55:16.050Z,5.25
2019-05-03T22:58:46.218Z,3.95
2019-05-03T23:00:15.449Z,4.47
2019-05-03T23:03:45.700Z,4.53
2019-05-03T23:07:15.909Z,6.26
2019-05-03T23:10:45.958Z,3.14
2019-05-03T23:14:16.041Z,7.38
2019-05-03T23:17:46.148Z,4.75
2019-05-03T23:21:21.265Z,3.64
2019-05-03T23:24:51.511Z,4.29
2019-05-03T23:28:21.515Z,3.27
2019-05-03T23:31:51.772Z,3.8
2019-05-03T23:35:21.800Z,3.71
2019-05-03T23:38:51.862Z,3.73
2019-05-03T23:42:21.941Z,4.38
2019-05-03T23:45:52.008Z,4.1
2019-05-03T23:49:22.120Z,4.1
2019-05-03T23:52:52.226Z,5.15
2019-05-03T23:56:24.352Z,3.9
2019-05-03T23:59:56.791Z,6.12
